Nearby METAR Reports

 

KI68 - Lebanon, Ohio, USA
Distance from station: SW 1mi, 3km
Updated: Mon, 23-Jan-2023 2:15am EST
NOT Current
Light snow, Overcast
Light snow, Overcast
 Wind from calm
Wind: Calm
Temperature: 32°F , 0°C
Dew Point: 30°F , -1°C
Humidity: 93%
Barometer: 29.86 inHg , 1011.2 hPa
Summary: Light Snow
Clouds: Overcast
Visibility: 4 miles , 6 km
Cloud details: Overcast 600 ft
2023/01/23 07:15 KI68 230715Z AUTO 00000KT 4SM -SN OVC006 00/M01 A2986 RMK AO1 T00001006
KLEX - Lexington, Kentucky, USA
Distance from station: SE 25mi, 38km
Updated: Thu, 26-Jan-2023 7:19pm EST
Overcast
Overcast
 Wind from WSW
Wind: WSW 14 mph , 22 km/h
Temperature: 32°F , 0°C
Wind Chill: 22°F , -6°C
Dew Point: 25°F , -4°C
Humidity: 75%
Barometer: 30.10 inHg , 1019.3 hPa
Clouds: Overcast
Visibility: 10 miles , 16 km
Cloud details: Partly cloudy 2300 ft
Overcast 4100 ft
2023/01/27 00:19 KLEX 270019Z 25012KT 10SM SCT023 OVC041 00/M04 A3010 RMK AO2 T00001044
 
KFFT - Frankfort, Kentucky, USA
Distance from station: WNW 24mi, 38km
Updated: Thu, 26-Jan-2023 7:30pm EST
Overcast
Overcast
 Wind from WSW
Wind: WSW 8 mph , 13 km/h
Temperature: 32°F , 0°C
Wind Chill: 25°F , -4°C
Dew Point: 25°F , -4°C
Humidity: 75%
Barometer: 30.10 inHg , 1019.3 hPa
Clouds: Overcast
Visibility: 10 miles , 16 km
Cloud details: Few Clouds 2200 ft
Partly cloudy 2900 ft
Overcast 3700 ft
2023/01/27 00:30 KFFT 270030Z AUTO 24007KT 10SM FEW022 SCT029 OVC037 00/M04 A3010 RMK AO2 T00001044
KIOB - Mount Sterling, Kentucky, USA
Distance from station: E 28mi, 46km
Updated: Thu, 26-Jan-2023 7:15pm EST
Overcast
Overcast
 Wind from W
Wind: W 8 mph , 13 km/h, Gust: 16 mph , 26 km/h
Temperature: 32°F , 0°C
Wind Chill: 25°F , -4°C
Dew Point: 25°F , -4°C
Humidity: 75%
Barometer: 30.12 inHg , 1020 hPa
Clouds: Overcast
Visibility: 10 miles , 16 km
Cloud details: Overcast 3300 ft
2023/01/27 00:15 KIOB 270015Z AUTO 27007G14KT 10SM OVC033 00/M04 A3012 RMK AO2 PWINO
 
KDVK - Danville, Kentucky, USA
Distance from station: SSW 35mi, 56km
Updated: Thu, 26-Jan-2023 7:15pm EST
Overcast
Overcast
 Wind from calm
Wind: Calm
Temperature: 32°F , 0°C
Dew Point: 25°F , -4°C
Humidity: 75%
Barometer: 30.12 inHg , 1020 hPa
Clouds: Overcast
Visibility: 10 miles , 16 km
Cloud details: Partly cloudy 2800 ft
Partly cloudy 3500 ft
Overcast 4200 ft
2023/01/27 00:15 KDVK 270015Z AUTO 00000KT 10SM SCT028 SCT035 OVC042 00/M04 A3012 RMK AO2
K6I2 - Springfield, Kentucky, USA
Distance from station: SW 49mi, 80km
Updated: Thu, 26-Jan-2023 7:15pm EST
Clear
Clear
 Wind from SW
Wind: SW 7 mph , 11 km/h
Temperature: 32°F , 0°C
Wind Chill: 25°F , -4°C
Dew Point: 25°F , -4°C
Humidity: 75%
Barometer: 30.13 inHg , 1020.3 hPa
Clouds: Clear
Visibility: 10 miles , 16 km
2023/01/27 00:15 K6I2 270015Z AUTO 23006KT 10SM CLR 00/M04 A3013 RMK AO2
 
KSYM - Morehead, Kentucky, USA
Distance from station: ENE 51mi, 83km
Updated: Thu, 26-Jan-2023 7:35pm EST
Overcast
Overcast
 Wind from varies
Wind: varies 7 mph , 11 km/h, Gust: 17 mph , 28 km/h
Temperature: 32°F , 0°C
Wind Chill: 25°F , -4°C
Dew Point: 21°F , -6°C
Humidity: 64%
Barometer: 30.10 inHg , 1019.3 hPa
Clouds: Overcast
Visibility: 10 miles , 16 km
Cloud details: Overcast 3200 ft
2023/01/27 00:35 KSYM 270035Z AUTO VRB06G15KT 10SM OVC032 M00/M06 A3010 RMK AO2
KFGX - Flemingsburg, Kentucky, USA
Distance from station: NE 54mi, 87km
Updated: Wed, 04-Jan-2023 8:35pm EST
NOT Current
Clear
Clear
 Wind from WNW
Wind: WNW 5 mph , 7 km/h
Temperature: 48°F , 9°C
Wind Chill: 46°F , 8°C
Dew Point: 37°F , 3°C
Humidity: 66%
Barometer: 29.91 inHg , 1012.9 hPa
Clouds: Clear
Visibility: 10 miles , 16 km
2023/01/05 01:35 KFGX 050135Z AUTO 29004KT 10SM CLR 09/03 A2991 RMK AO2 T00900032
 
KLOU - Louisville/Bowmn, Kentucky, USA
Distance from station: W 64mi, 104km
Updated: Thu, 26-Jan-2023 6:53pm EST
Overcast
Overcast
 Wind from SW
Wind: SW 12 mph , 19 km/h
Temperature: 32°F , 0°C
Wind Chill: 23°F , -5°C
Dew Point: 23°F , -5°C
Humidity: 69%
Barometer: 30.12 inHg , 1020 hPa
Clouds: Overcast
Visibility: 10 miles , 16 km
Cloud details: Overcast 4800 ft
2023/01/26 23:53 KLOU 262353Z 23010KT 10SM OVC048 00/M05 A3012 RMK AO2 UPB2259E08SNB2258E2259 SLP202 P0000 60000 T00001050 10011 20000 51012
KSDF - Louisville, Kentucky, USA
Distance from station: W 68mi, 109km
Updated: Thu, 26-Jan-2023 7:08pm EST
Mostly cloudy
Mostly cloudy
 Wind from WSW
Wind: WSW 10 mph , 17 km/h
Temperature: 34°F , 1°C
Wind Chill: 26°F , -3°C
Dew Point: 23°F , -5°C
Humidity: 65%
Barometer: 30.12 inHg , 1020 hPa
Clouds: Mostly cloudy
Visibility: 10 miles , 16 km
Cloud details: Mostly cloudy 4500 ft
2023/01/27 00:08 KSDF 270008Z 25009KT 10SM BKN045 01/M05 A3012 RMK AO2 SNE08 P0000 T00111050 $
 
KSME - Somerset, Kentucky, USA
Distance from station: S 69mi, 111km
Updated: Thu, 26-Jan-2023 7:15pm EST
Overcast
Overcast
 Wind from W
Wind: W 13 mph , 20 km/h, Gust: 20 mph , 31 km/h
Temperature: 36°F , 2°C
Wind Chill: 27°F , -3°C
Dew Point: 27°F , -3°C
Humidity: 70%
Barometer: 30.12 inHg , 1020 hPa
Clouds: Overcast
Visibility: 10 miles , 16 km
Cloud details: Mostly cloudy 3500 ft
Overcast 4600 ft
2023/01/27 00:15 KSME 270015Z AUTO 28011G17KT 10SM BKN035 OVC046 02/M03 A3012 RMK AO2
KCVG - Covington, Kentucky, USA
Distance from station: N 70mi, 113km
Updated: Thu, 26-Jan-2023 7:03pm EST
Overcast
Overcast
 Wind from W
Wind: W 12 mph , 19 km/h, Gust: 23 mph , 37 km/h
Temperature: 28°F , -2°C
Wind Chill: 18°F , -8°C
Dew Point: 21°F , -6°C
Humidity: 74%
Barometer: 30.06 inHg , 1017.9 hPa
Clouds: Overcast
Visibility: 9 miles , 14 km
Cloud details: Overcast 3700 ft
2023/01/27 00:03 KCVG 270003Z 26010G20KT 9SM OVC037 M02/M06 A3006 RMK AO2 SNE03 P0000 T10171056
 
KLOZ - London, Kentucky, USA
Distance from station: SSE 70mi, 113km
Updated: Thu, 26-Jan-2023 6:53pm EST
Overcast
Overcast
 Wind from W
Wind: W 10 mph , 17 km/h
Temperature: 34°F , 1°C
Wind Chill: 26°F , -3°C
Dew Point: 25°F , -4°C
Humidity: 70%
Barometer: 30.10 inHg , 1019.3 hPa
Clouds: Overcast
Visibility: 10 miles , 16 km
Cloud details: Overcast 5000 ft
2023/01/26 23:53 KLOZ 262353Z AUTO 28009KT 10SM OVC050 01/M04 A3010 RMK AO2 SLP201 60000 T00061044 10028 20006 53014
KJKL - Noctor/Jackson, Kentucky, USA
Distance from station: ESE 72mi, 115km
Updated: Thu, 26-Jan-2023 6:53pm EST
Overcast
Overcast
 Wind from W
Wind: W 6 mph , 9 km/h
Temperature: 34°F , 1°C
Wind Chill: 29°F , -2°C
Dew Point: 23°F , -5°C
Humidity: 65%
Barometer: 30.07 inHg , 1018.3 hPa
Clouds: Overcast
Visibility: 10 miles , 16 km
Cloud details: Mostly cloudy 3300 ft
Overcast 4800 ft
2023/01/26 23:53 KJKL 262353Z AUTO 26005KT 10SM BKN033 OVC048 01/M05 A3007 RMK AO2 SLP191 60000 T00061050 10033 20006 51014
 
KIMS - Madison, Indiana, USA
Distance from station: NW 72mi, 116km
Updated: Thu, 26-Jan-2023 7:15pm EST
Overcast
Overcast
 Wind from SW
Wind: SW 5 mph , 7 km/h
Temperature: 30°F , -1°C
Wind Chill: 25°F , -4°C
Dew Point: 27°F , -3°C
Humidity: 86%
Barometer: 30.10 inHg , 1019.3 hPa
Clouds: Overcast
Visibility: 10 miles , 16 km
Cloud details: Overcast 4100 ft
2023/01/27 00:15 KIMS 270015Z AUTO 23004KT 10SM OVC041 M01/M03 A3010 RMK AO2
KLUK - Cincinnat/Lunken, Ohio, USA
Distance from station: N 73mi, 118km
Updated: Thu, 26-Jan-2023 6:53pm EST
Overcast
Overcast
 Wind from WSW
Wind: WSW 16 mph , 26 km/h
Temperature: 30°F , -1°C
Wind Chill: 19°F , -7°C
Dew Point: 23°F , -5°C
Humidity: 75%
Barometer: 30.09 inHg , 1019 hPa
Clouds: Overcast
Visibility: 10 miles , 16 km
Cloud details: Mostly cloudy 3100 ft
Overcast 4100 ft
2023/01/26 23:53 KLUK 262353Z 24014KT 10SM BKN031 OVC041 M01/M05 A3009 RMK AO2 SNB30E38 SLP195 P0000 60000 T10061050 10011 21006 53017
 
KI69 - Batavia, Ohio, USA
Distance from station: NNE 74mi, 119km
Updated: Thu, 26-Jan-2023 7:35pm EST
Light snow, Overcast
Light snow, Overcast
 Wind from WSW
Wind: WSW 14 mph , 22 km/h, Gust: 18 mph , 30 km/h
Temperature: 30°F , -1°C
Wind Chill: 19°F , -7°C
Dew Point: 23°F , -5°C
Humidity: 75%
Barometer: 30.08 inHg , 1018.6 hPa
Summary: Light Snow
Clouds: Overcast
Visibility: 10 miles , 16 km
Cloud details: Partly cloudy 2300 ft
Mostly cloudy 2900 ft
Overcast 3400 ft
2023/01/27 00:35 KI69 270035Z AUTO 25012G16KT 10SM -SN SCT023 BKN029 OVC034 M01/M05 A3008 RMK AO2 T10081046